Time;durP1;ratioP1;P1;durP2;ratioP2;P2;SDS_P1;SDS_P2;PMS_P1;PMS_P2;Temp;Humidity;BMP_temperature;BMP_pressure;BME280_temperature;BME280_humidity;BME280_pressure;Samples;Min_cycle;Max_cycle;Signal;HPM_P1;HPM_P2
2021/01/15 00:00:09;;;;;;;26.6;16.8;;;;;;;-2.58;83.55176;98478.78;;;;
2021/01/15 00:10:09;;;;;;;25.2;15.3;;;;;;;-2.49;83.83008;98486.35;;;;
2021/01/15 00:20:03;;;;;;;25.9;15.6;;;;;;;-2.58;83.99805;98506.99;;;;
2021/01/15 00:30:01;;;;;;;30.4;16.5;;;;;;;-2.67;84.0459;98516.23;;;;
2021/01/15 00:39:58;;;;;;;22.8;16.5;;;;;;;-2.69;83.98926;98527.02;;;;
2021/01/15 00:49:55;;;;;;;19.5;12.6;;;;;;;-2.79;79.89551;98529.39;;;;
2021/01/15 00:59:53;;;;;;;17.4;9.4;;;;;;;-2.84;78.4541;98531.07;;;;
2021/01/15 01:09:50;;;;;;;15.1;12.5;;;;;;;-2.98;80.08984;98548.89;;;;
2021/01/15 01:19:47;;;;;;;17.4;9.9;;;;;;;-3.03;78.70215;98555.86;;;;
2021/01/15 01:29:45;;;;;;;12.1;8.6;;;;;;;-3.21;78.51758;98577.76;;;;
2021/01/15 01:39:42;;;;;;;14.2;7.9;;;;;;;-3.33;78.70215;98572.39;;;;
2021/01/15 01:49:39;;;;;;;11;7.2;;;;;;;-3.4;78.78809;98582.2;;;;
2021/01/15 01:59:37;;;;;;;12.2;7.7;;;;;;;-3.57;79.22461;98586.41;;;;
2021/01/15 02:09:34;;;;;;;11.6;7.5;;;;;;;-3.71;79.18848;98592.81;;;;
2021/01/15 02:19:31;;;;;;;9.7;6.2;;;;;;;-3.83;80.2002;98591.92;;;;
2021/01/15 02:29:28;;;;;;;11.9;7;;;;;;;-3.87;80.41113;98588.11;;;;
2021/01/15 02:39:26;;;;;;;11.2;7.7;;;;;;;-3.9;81.41699;98585.91;;;;
2021/01/15 02:49:23;;;;;;;16.8;10.4;;;;;;;-3.97;81.78613;98591.23;;;;
2021/01/15 02:59:20;;;;;;;14;10.3;;;;;;;-3.94;82.0752;98600.52;;;;
2021/01/15 03:09:18;;;;;;;19.3;11.8;;;;;;;-3.97;82.52637;98617.55;;;;
2021/01/15 03:19:15;;;;;;;18.9;14.3;;;;;;;-3.95;82.72461;98619.95;;;;
2021/01/15 03:29:13;;;;;;;19.8;13.7;;;;;;;-3.94;83.17383;98608.41;;;;
2021/01/15 03:39:09;;;;;;;18;14.3;;;;;;;-3.91;83.22266;98610.61;;;;
2021/01/15 03:49:07;;;;;;;19;14.4;;;;;;;-3.86;83.71289;98613.42;;;;
2021/01/15 03:59:04;;;;;;;19.9;14.6;;;;;;;-3.88;84.53613;98603.09;;;;
2021/01/15 04:09:01;;;;;;;26;15.3;;;;;;;-3.94;85.5459;98608.41;;;;
2021/01/15 04:18:58;;;;;;;21.7;16.2;;;;;;;-3.93;85.23047;98599.5;;;;
2021/01/15 04:28:56;;;;;;;21.1;12.9;;;;;;;-3.99;86.12207;98601.14;;;;
2021/01/15 04:38:53;;;;;;;25.4;16.3;;;;;;;-3.91;86.47559;98603.52;;;;
2021/01/15 04:48:50;;;;;;;37.1;24.2;;;;;;;-3.92;86.89941;98594;;;;
2021/01/15 04:58:48;;;;;;;35.8;21.6;;;;;;;-3.95;87.2168;98604.16;;;;
2021/01/15 05:08:45;;;;;;;31.7;21.2;;;;;;;-3.95;87.03223;98598.89;;;;
2021/01/15 05:18:42;;;;;;;29.5;22.7;;;;;;;-3.93;87.64648;98597.67;;;;
2021/01/15 05:28:40;;;;;;;30;20.4;;;;;;;-3.88;87.76465;98599.64;;;;
2021/01/15 05:38:37;;;;;;;33.9;19.7;;;;;;;-3.9;86.95605;98599.06;;;;
2021/01/15 05:48:34;;;;;;;34.5;24.3;;;;;;;-3.9;86.78223;98601.7;;;;
2021/01/15 05:58:32;;;;;;;24.6;18.2;;;;;;;-3.88;86.60059;98612.81;;;;
2021/01/15 06:08:30;;;;;;;34.8;23.4;;;;;;;-3.93;87.25488;98613.47;;;;
2021/01/15 06:18:26;;;;;;;25.4;19.2;;;;;;;-3.93;87.7002;98626.63;;;;
2021/01/15 06:28:24;;;;;;;17.5;11.6;;;;;;;-4.49;86.38965;98662.58;;;;
2021/01/15 06:38:21;;;;;;;23.3;10.1;;;;;;;-4.95;86.76074;98699.52;;;;
2021/01/15 06:48:18;;;;;;;18.9;11.8;;;;;;;-5.17;86.29395;98712.11;;;;
2021/01/15 06:58:16;;;;;;;18.6;12.4;;;;;;;-5.19;86.12793;98727.25;;;;
2021/01/15 07:08:12;;;;;;;16.1;11.8;;;;;;;-5.16;85.32031;98742.59;;;;
2021/01/15 07:18:21;;;;;;;17.1;11.9;;;;;;;-5.14;84.25195;98754.52;;;;
2021/01/15 07:28:09;;;;;;;17.4;13.6;;;;;;;-5.07;83.25684;98752.69;;;;
2021/01/15 07:38:04;;;;;;;20;11.1;;;;;;;-4.99;81.77246;98764.81;;;;
2021/01/15 07:48:01;;;;;;;19.2;10;;;;;;;-4.54;80.71875;98784.16;;;;
2021/01/15 07:57:58;;;;;;;15.1;8.3;;;;;;;-4.6;77.94336;98801.58;;;;
2021/01/15 08:07:56;;;;;;;14.8;11;;;;;;;-4.58;75.8457;98817.13;;;;
2021/01/15 08:17:53;;;;;;;19.3;8.8;;;;;;;-4.56;74.15137;98836.16;;;;
2021/01/15 08:27:50;;;;;;;10.2;5.3;;;;;;;-4.71;73.59082;98846.08;;;;
2021/01/15 08:37:47;;;;;;;17.3;9.9;;;;;;;-4.48;73.93652;98857;;;;
2021/01/15 08:47:45;;;;;;;13;7.5;;;;;;;-4.44;74.2373;98876.59;;;;
2021/01/15 08:57:42;;;;;;;13.5;7.6;;;;;;;-4.33;72.2168;98891.77;;;;
2021/01/15 09:07:39;;;;;;;19.2;12.7;;;;;;;-4.04;71.25;98902.84;;;;
2021/01/15 09:17:36;;;;;;;16.4;11;;;;;;;-4.02;70.26074;98919.23;;;;
2021/01/15 09:27:33;;;;;;;19.3;11.5;;;;;;;-3.96;70.22559;98926.33;;;;
2021/01/15 09:37:31;;;;;;;13.9;8.9;;;;;;;-3.84;69.19922;98930.73;;;;
2021/01/15 09:47:28;;;;;;;15.8;9.3;;;;;;;-3.66;67.43262;98935.34;;;;
2021/01/15 09:57:25;;;;;;;14;9.3;;;;;;;-3.56;67.24121;98944.43;;;;
2021/01/15 10:07:23;;;;;;;14.6;7.8;;;;;;;-3.02;65.13477;98937.1;;;;
2021/01/15 10:17:20;;;;;;;11.5;7.5;;;;;;;-2.91;63.40625;98939.04;;;;
2021/01/15 10:27:18;;;;;;;15.1;8.9;;;;;;;-3.22;62.07617;98924;;;;
2021/01/15 10:37:15;;;;;;;12.6;8.6;;;;;;;-3.46;61.81055;98935.27;;;;
2021/01/15 10:47:14;;;;;;;11.4;7.9;;;;;;;-2.87;61.16211;98885.67;;;;
2021/01/15 10:57:10;;;;;;;11.1;6.9;;;;;;;-2.82;62.1582;98880.58;;;;
2021/01/15 11:07:08;;;;;;;17.6;11.9;;;;;;;-2.75;60.04688;98875.25;;;;
2021/01/15 11:17:05;;;;;;;19.3;9.7;;;;;;;-2.59;59.4209;98853.59;;;;
2021/01/15 11:27:02;;;;;;;15.8;9.6;;;;;;;-3.15;60.13379;98851.8;;;;
2021/01/15 11:37:00;;;;;;;12.6;8.1;;;;;;;-3.06;56.7959;98834.72;;;;
2021/01/15 11:46:57;;;;;;;18.3;8.7;;;;;;;-2.81;57.01465;98850.53;;;;
2021/01/15 11:56:54;;;;;;;13.1;8.2;;;;;;;-2.42;56.25293;98833.55;;;;
2021/01/15 12:06:51;;;;;;;10.7;6.1;;;;;;;-2.46;57.85547;98832.36;;;;
2021/01/15 12:16:49;;;;;;;15.6;10.2;;;;;;;-1.99;55.52637;98837.98;;;;
2021/01/15 12:26:46;;;;;;;19.2;9.5;;;;;;;-1.98;54.17285;98829.04;;;;
2021/01/15 12:36:44;;;;;;;13.8;8.5;;;;;;;-1.34;52.08887;98826.57;;;;
2021/01/15 12:46:42;;;;;;;20.9;11;;;;;;;-1.24;51.36133;98816.25;;;;
2021/01/15 12:56:39;;;;;;;6.8;4.8;;;;;;;-1.58;51.50684;98823.04;;;;
2021/01/15 13:06:37;;;;;;;10.5;9.3;;;;;;;-1.79;52.05664;98820.06;;;;
2021/01/15 13:16:36;;;;;;;11.9;7.5;;;;;;;-2.13;52.92969;98824.12;;;;
2021/01/15 13:26:32;;;;;;;11.9;7.2;;;;;;;-2.1;53.16504;98824.48;;;;
2021/01/15 13:36:29;;;;;;;20.8;11.9;;;;;;;-2.54;52.82227;98830.02;;;;
2021/01/15 13:46:27;;;;;;;9.6;7.2;;;;;;;-3.01;49.97754;98830.61;;;;
2021/01/15 13:56:24;;;;;;;11.3;7.1;;;;;;;-3.6;49.73242;98839.69;;;;
2021/01/15 14:06:22;;;;;;;8.8;6.2;;;;;;;-3.62;52.45703;98841.74;;;;
2021/01/15 14:16:19;;;;;;;28.1;18.3;;;;;;;-3.97;55.13672;98859.7;;;;
2021/01/15 14:26:16;;;;;;;22.1;14.5;;;;;;;-4.4;55.58398;98853.32;;;;
2021/01/15 14:36:13;;;;;;;22.3;13.5;;;;;;;-4.91;59.45605;98845.28;;;;
2021/01/15 14:46:11;;;;;;;33.5;18.6;;;;;;;-5.25;61.625;98856.77;;;;
2021/01/15 14:56:09;;;;;;;21.6;13.8;;;;;;;-5.35;63.5752;98848.47;;;;
2021/01/15 15:06:05;;;;;;;37.3;28.2;;;;;;;-5.51;64.83789;98854.89;;;;
2021/01/15 15:16:02;;;;;;;27.8;14;;;;;;;-5.69;65.81348;98847.56;;;;
2021/01/15 15:25:59;;;;;;;24;13.9;;;;;;;-5.74;66.4248;98843.92;;;;
2021/01/15 15:35:56;;;;;;;36.6;19.7;;;;;;;-5.66;66.1875;98846.38;;;;
2021/01/15 15:45:53;;;;;;;31.1;17.4;;;;;;;-5.62;65.88867;98837.89;;;;
2021/01/15 15:55:50;;;;;;;30.6;20.5;;;;;;;-5.69;66.36914;98852.81;;;;
2021/01/15 16:05:47;;;;;;;27.1;19.5;;;;;;;-5.61;66.99121;98846.58;;;;
2021/01/15 16:15:44;;;;;;;36;19.3;;;;;;;-5.53;66.36035;98851.66;;;;
2021/01/15 16:25:41;;;;;;;36.4;20;;;;;;;-5.43;65.8418;98849.46;;;;
2021/01/15 16:35:38;;;;;;;30.2;22.3;;;;;;;-5.46;65.64063;98846.42;;;;
2021/01/15 16:45:36;;;;;;;40.3;23.9;;;;;;;-5.55;64.35059;98852.88;;;;
2021/01/15 16:55:33;;;;;;;37.8;21.8;;;;;;;-5.48;63.43652;98849.23;;;;
2021/01/15 17:05:30;;;;;;;36.2;23.8;;;;;;;-5.59;62.80957;98850.62;;;;
2021/01/15 17:15:27;;;;;;;37.4;21.5;;;;;;;-5.6;63.22266;98864.77;;;;
2021/01/15 17:25:24;;;;;;;35.3;17.1;;;;;;;-5.54;62.68555;98864.98;;;;
2021/01/15 17:35:21;;;;;;;78.6;46.6;;;;;;;-5.55;63.20703;98869.41;;;;
2021/01/15 17:45:18;;;;;;;47.3;31.2;;;;;;;-5.53;64.99805;98862.16;;;;
2021/01/15 17:55:15;;;;;;;44.1;33.7;;;;;;;-5.52;65.44629;98873.48;;;;
2021/01/15 18:05:12;;;;;;;43.6;27.3;;;;;;;-5.58;68.43262;98872.44;;;;
2021/01/15 18:15:12;;;;;;;43.6;25.8;;;;;;;-5.76;72.00391;98882.69;;;;
2021/01/15 18:25:11;;;;;;;38.4;24.5;;;;;;;-5.84;76.0752;98885.47;;;;
2021/01/15 18:35:03;;;;;;;47.6;27.8;;;;;;;-6.11;79.55273;98887.98;;;;
2021/01/15 18:45:00;;;;;;;37.1;23.5;;;;;;;-6.03;80.34668;98881.77;;;;
2021/01/15 18:54:57;;;;;;;57;30.3;;;;;;;-6.03;80.50977;98887.02;;;;
2021/01/15 19:04:54;;;;;;;42.6;29.7;;;;;;;-6;80.39551;98891.09;;;;
2021/01/15 19:14:51;;;;;;;54;34.4;;;;;;;-5.92;79.20703;98898.78;;;;
2021/01/15 19:24:49;;;;;;;80.9;46.9;;;;;;;-5.89;78.9541;98901.01;;;;
2021/01/15 19:34:46;;;;;;;66.2;41;;;;;;;-5.83;78.69238;98905.47;;;;
2021/01/15 19:44:43;;;;;;;64.8;35.7;;;;;;;-5.86;79.69629;98906.67;;;;
2021/01/15 19:54:40;;;;;;;74.3;47.4;;;;;;;-5.82;81.50293;98899.2;;;;
2021/01/15 20:04:37;;;;;;;40.6;29;;;;;;;-5.83;82.40039;98887.88;;;;
2021/01/15 20:14:34;;;;;;;58.9;36.9;;;;;;;-5.73;83.02832;98909.36;;;;
2021/01/15 20:24:31;;;;;;;85.6;48.4;;;;;;;-5.67;85.16504;98908.56;;;;
2021/01/15 20:34:28;;;;;;;64.9;38;;;;;;;-5.59;84.65039;98903.13;;;;
2021/01/15 20:44:25;;;;;;;51.5;35.8;;;;;;;-5.42;84.53027;98921.18;;;;
2021/01/15 20:54:23;;;;;;;50.1;30.2;;;;;;;-5.34;84.96094;98927.05;;;;
2021/01/15 21:04:20;;;;;;;57.7;32.9;;;;;;;-5.33;87.77832;98941.81;;;;
2021/01/15 21:14:17;;;;;;;37.6;23.4;;;;;;;-5.19;87.5918;98947.91;;;;
2021/01/15 21:24:14;;;;;;;44.6;32.6;;;;;;;-5.2;85.84473;98930.52;;;;
2021/01/15 21:34:11;;;;;;;45.4;27.1;;;;;;;-5.28;85.05859;98931.53;;;;
2021/01/15 21:44:10;;;;;;;51.4;29.7;;;;;;;-5.33;85.20996;98920.8;;;;
2021/01/15 21:54:06;;;;;;;40.8;28;;;;;;;-5.33;85.20996;98936.55;;;;
2021/01/15 22:04:03;;;;;;;62.6;36.4;;;;;;;-5.28;84.92773;98933.34;;;;
2021/01/15 22:14:00;;;;;;;63.9;37.6;;;;;;;-5.21;84.8252;98927.11;;;;
2021/01/15 22:23:57;;;;;;;46;31.8;;;;;;;-5.28;85.1123;98931.53;;;;
2021/01/15 22:33:55;;;;;;;43.2;28.5;;;;;;;-5.27;85.22266;98930.51;;;;
2021/01/15 22:43:52;;;;;;;41.7;28.9;;;;;;;-5.32;85.44141;98930.31;;;;
2021/01/15 22:53:49;;;;;;;51.2;31.5;;;;;;;-5.4;85.30371;98940.16;;;;
2021/01/15 23:03:46;;;;;;;56.2;37.5;;;;;;;-5.46;85.93262;98952.27;;;;
2021/01/15 23:13:43;;;;;;;62;37.8;;;;;;;-5.31;86.0498;98950.29;;;;
2021/01/15 23:23:40;;;;;;;64.1;36.3;;;;;;;-5.22;86.02539;98970.14;;;;
2021/01/15 23:33:37;;;;;;;62.2;36.8;;;;;;;-5.13;85.64355;98979.45;;;;
2021/01/15 23:43:35;;;;;;;40.5;28.7;;;;;;;-5.24;84.45996;98977.39;;;;
2021/01/15 23:53:32;;;;;;;32.6;22.4;;;;;;;-5.44;83.71387;98983.57;;;;
